sensor_id;sensor_type;location;lat;lon;timestamp;temperature;humidity
21787;DHT22;11055;50.870;4.316;2022-12-07T00:01:42;5.30;99.90
21787;DHT22;11055;50.870;4.316;2022-12-07T00:04:12;5.30;99.90
21787;DHT22;11055;50.870;4.316;2022-12-07T00:06:40;5.40;99.90
21787;DHT22;11055;50.870;4.316;2022-12-07T00:09:08;5.30;99.90
21787;DHT22;11055;50.870;4.316;2022-12-07T00:11:35;5.30;99.90
21787;DHT22;11055;50.870;4.316;2022-12-07T00:14:03;5.40;99.90
21787;DHT22;11055;50.870;4.316;2022-12-07T00:16:32;5.30;99.90
21787;DHT22;11055;50.870;4.316;2022-12-07T00:18:58;5.30;99.90
21787;DHT22;11055;50.870;4.316;2022-12-07T00:21:29;5.30;99.90
21787;DHT22;11055;50.870;4.316;2022-12-07T00:23:55;5.30;99.90
21787;DHT22;11055;50.870;4.316;2022-12-07T00:26:23;5.30;99.90
21787;DHT22;11055;50.870;4.316;2022-12-07T00:28:51;5.30;99.90
21787;DHT22;11055;50.870;4.316;2022-12-07T00:31:19;5.20;99.90
21787;DHT22;11055;50.870;4.316;2022-12-07T00:33:45;5.20;99.90
21787;DHT22;11055;50.870;4.316;2022-12-07T00:36:14;5.30;99.90
21787;DHT22;11055;50.870;4.316;2022-12-07T00:38:40;5.30;99.90
21787;DHT22;11055;50.870;4.316;2022-12-07T00:41:10;5.30;99.90
21787;DHT22;11055;50.870;4.316;2022-12-07T00:43:36;5.40;99.90
21787;DHT22;11055;50.870;4.316;2022-12-07T00:46:02;5.50;99.90
21787;DHT22;11055;50.870;4.316;2022-12-07T00:48:27;5.50;99.90
21787;DHT22;11055;50.870;4.316;2022-12-07T00:50:53;5.40;99.90
21787;DHT22;11055;50.870;4.316;2022-12-07T00:53:19;5.30;99.90
21787;DHT22;11055;50.870;4.316;2022-12-07T00:55:46;5.20;99.90
21787;DHT22;11055;50.870;4.316;2022-12-07T00:58:11;5.20;99.90
21787;DHT22;11055;50.870;4.316;2022-12-07T01:00:39;5.10;99.90
21787;DHT22;11055;50.870;4.316;2022-12-07T01:03:06;5.00;99.90
21787;DHT22;11055;50.870;4.316;2022-12-07T01:05:32;5.00;99.90
21787;DHT22;11055;50.870;4.316;2022-12-07T01:07:58;5.00;99.90
21787;DHT22;11055;50.870;4.316;2022-12-07T01:10:26;5.00;99.90
21787;DHT22;11055;50.870;4.316;2022-12-07T01:12:52;5.00;99.90
21787;DHT22;11055;50.870;4.316;2022-12-07T01:15:17;5.00;99.90
21787;DHT22;11055;50.870;4.316;2022-12-07T01:17:43;5.00;99.90
21787;DHT22;11055;50.870;4.316;2022-12-07T01:20:09;4.90;99.90
21787;DHT22;11055;50.870;4.316;2022-12-07T01:22:39;5.00;99.90
21787;DHT22;11055;50.870;4.316;2022-12-07T01:25:06;4.90;99.90
21787;DHT22;11055;50.870;4.316;2022-12-07T01:27:33;4.90;99.90
21787;DHT22;11055;50.870;4.316;2022-12-07T01:30:00;4.90;99.90
21787;DHT22;11055;50.870;4.316;2022-12-07T01:32:25;4.90;99.90
21787;DHT22;11055;50.870;4.316;2022-12-07T01:34:51;4.80;99.90
21787;DHT22;11055;50.870;4.316;2022-12-07T01:37:17;4.90;99.90
21787;DHT22;11055;50.870;4.316;2022-12-07T01:39:43;4.80;99.90
21787;DHT22;11055;50.870;4.316;2022-12-07T01:42:12;4.80;99.90
21787;DHT22;11055;50.870;4.316;2022-12-07T01:47:42;4.90;99.90
21787;DHT22;11055;50.870;4.316;2022-12-07T01:50:09;4.80;99.90
21787;DHT22;11055;50.870;4.316;2022-12-07T01:52:37;4.90;99.90
21787;DHT22;11055;50.870;4.316;2022-12-07T01:55:07;5.00;99.90
21787;DHT22;11055;50.870;4.316;2022-12-07T01:57:35;5.20;99.90
21787;DHT22;11055;50.870;4.316;2022-12-07T02:00:04;5.30;99.90
21787;DHT22;11055;50.870;4.316;2022-12-07T02:02:34;5.30;99.90
21787;DHT22;11055;50.870;4.316;2022-12-07T02:05:01;5.30;99.90
21787;DHT22;11055;50.870;4.316;2022-12-07T02:07:29;5.20;99.90
21787;DHT22;11055;50.870;4.316;2022-12-07T02:09:55;5.10;99.90
21787;DHT22;11055;50.870;4.316;2022-12-07T02:12:21;5.00;99.90
21787;DHT22;11055;50.870;4.316;2022-12-07T02:14:47;5.00;99.90
21787;DHT22;11055;50.870;4.316;2022-12-07T02:17:24;4.90;99.90
21787;DHT22;11055;50.870;4.316;2022-12-07T02:27:56;4.90;99.90
21787;DHT22;11055;50.870;4.316;2022-12-07T02:30:31;4.80;99.90
21787;DHT22;11055;50.870;4.316;2022-12-07T02:33:02;4.90;99.90
21787;DHT22;11055;50.870;4.316;2022-12-07T02:35:39;4.90;99.90
21787;DHT22;11055;50.870;4.316;2022-12-07T02:38:30;4.90;99.90
21787;DHT22;11055;50.870;4.316;2022-12-07T02:41:13;4.90;99.90
21787;DHT22;11055;50.870;4.316;2022-12-07T02:43:46;4.90;99.90
21787;DHT22;11055;50.870;4.316;2022-12-07T02:46:21;4.90;99.90
21787;DHT22;11055;50.870;4.316;2022-12-07T02:48:47;4.90;99.90
21787;DHT22;11055;50.870;4.316;2022-12-07T02:51:17;4.90;99.90
21787;DHT22;11055;50.870;4.316;2022-12-07T02:53:43;4.80;99.90
21787;DHT22;11055;50.870;4.316;2022-12-07T02:56:30;4.80;99.90
21787;DHT22;11055;50.870;4.316;2022-12-07T02:59:12;4.80;99.90
21787;DHT22;11055;50.870;4.316;2022-12-07T03:01:50;4.80;99.90
21787;DHT22;11055;50.870;4.316;2022-12-07T03:04:26;4.80;99.90
21787;DHT22;11055;50.870;4.316;2022-12-07T03:07:02;4.80;99.90
21787;DHT22;11055;50.870;4.316;2022-12-07T03:09:34;4.70;99.90
21787;DHT22;11055;50.870;4.316;2022-12-07T03:14:35;4.70;99.90
21787;DHT22;11055;50.870;4.316;2022-12-07T03:17:14;4.70;99.90
21787;DHT22;11055;50.870;4.316;2022-12-07T03:19:42;4.70;99.90
21787;DHT22;11055;50.870;4.316;2022-12-07T03:22:11;4.70;99.90
21787;DHT22;11055;50.870;4.316;2022-12-07T03:24:51;4.80;99.90
21787;DHT22;11055;50.870;4.316;2022-12-07T03:27:28;4.80;99.90
21787;DHT22;11055;50.870;4.316;2022-12-07T03:30:03;4.80;99.90
21787;DHT22;11055;50.870;4.316;2022-12-07T03:32:34;4.80;99.90
21787;DHT22;11055;50.870;4.316;2022-12-07T03:37:40;4.80;99.90
21787;DHT22;11055;50.870;4.316;2022-12-07T03:40:10;4.80;99.90
21787;DHT22;11055;50.870;4.316;2022-12-07T03:42:37;4.80;99.90
21787;DHT22;11055;50.870;4.316;2022-12-07T03:45:03;4.90;99.90
21787;DHT22;11055;50.870;4.316;2022-12-07T03:47:36;4.90;99.90
21787;DHT22;11055;50.870;4.316;2022-12-07T03:50:16;4.80;99.90
21787;DHT22;11055;50.870;4.316;2022-12-07T03:52:58;4.80;99.90
21787;DHT22;11055;50.870;4.316;2022-12-07T03:55:29;4.70;99.90
21787;DHT22;11055;50.870;4.316;2022-12-07T03:58:00;4.70;99.90
21787;DHT22;11055;50.870;4.316;2022-12-07T04:00:26;4.60;99.90
21787;DHT22;11055;50.870;4.316;2022-12-07T04:02:52;4.60;99.90
21787;DHT22;11055;50.870;4.316;2022-12-07T04:05:18;4.60;99.90
21787;DHT22;11055;50.870;4.316;2022-12-07T04:07:44;4.60;99.90
21787;DHT22;11055;50.870;4.316;2022-12-07T04:10:10;4.60;99.90
21787;DHT22;11055;50.870;4.316;2022-12-07T04:12:36;4.50;99.90
21787;DHT22;11055;50.870;4.316;2022-12-07T04:15:03;4.50;99.90
21787;DHT22;11055;50.870;4.316;2022-12-07T04:17:29;4.50;99.90
21787;DHT22;11055;50.870;4.316;2022-12-07T04:19:55;4.50;99.90
21787;DHT22;11055;50.870;4.316;2022-12-07T04:22:20;4.50;99.90
21787;DHT22;11055;50.870;4.316;2022-12-07T04:24:46;4.40;99.90
21787;DHT22;11055;50.870;4.316;2022-12-07T04:27:12;4.40;99.90
21787;DHT22;11055;50.870;4.316;2022-12-07T04:29:37;4.40;99.90
21787;DHT22;11055;50.870;4.316;2022-12-07T04:32:03;4.40;99.90
21787;DHT22;11055;50.870;4.316;2022-12-07T04:34:29;4.40;99.90
21787;DHT22;11055;50.870;4.316;2022-12-07T04:36:56;4.40;99.90
21787;DHT22;11055;50.870;4.316;2022-12-07T04:39:27;4.40;99.90
21787;DHT22;11055;50.870;4.316;2022-12-07T04:41:53;4.60;99.90
21787;DHT22;11055;50.870;4.316;2022-12-07T04:44:20;4.80;99.90
21787;DHT22;11055;50.870;4.316;2022-12-07T04:46:46;4.80;99.90
21787;DHT22;11055;50.870;4.316;2022-12-07T04:49:13;4.80;99.90
21787;DHT22;11055;50.870;4.316;2022-12-07T04:51:39;4.70;99.90
21787;DHT22;11055;50.870;4.316;2022-12-07T04:54:06;4.70;99.90
21787;DHT22;11055;50.870;4.316;2022-12-07T04:56:32;4.60;99.90
21787;DHT22;11055;50.870;4.316;2022-12-07T04:58:58;4.60;99.90
21787;DHT22;11055;50.870;4.316;2022-12-07T05:01:24;4.60;99.90
21787;DHT22;11055;50.870;4.316;2022-12-07T05:03:50;4.60;99.90
21787;DHT22;11055;50.870;4.316;2022-12-07T05:06:16;4.60;99.90
21787;DHT22;11055;50.870;4.316;2022-12-07T05:08:42;4.50;99.90
21787;DHT22;11055;50.870;4.316;2022-12-07T05:11:09;4.50;99.90
21787;DHT22;11055;50.870;4.316;2022-12-07T05:13:35;4.60;99.90
21787;DHT22;11055;50.870;4.316;2022-12-07T05:16:02;4.60;99.90
21787;DHT22;11055;50.870;4.316;2022-12-07T05:18:27;4.60;99.90
21787;DHT22;11055;50.870;4.316;2022-12-07T05:20:53;4.50;99.90
21787;DHT22;11055;50.870;4.316;2022-12-07T05:23:19;4.50;99.90
21787;DHT22;11055;50.870;4.316;2022-12-07T05:25:46;4.50;99.90
21787;DHT22;11055;50.870;4.316;2022-12-07T05:28:11;4.50;99.90
21787;DHT22;11055;50.870;4.316;2022-12-07T05:30:37;4.50;99.90
21787;DHT22;11055;50.870;4.316;2022-12-07T05:33:03;4.50;99.90
21787;DHT22;11055;50.870;4.316;2022-12-07T05:35:29;4.50;99.90
21787;DHT22;11055;50.870;4.316;2022-12-07T05:37:55;4.50;99.90
21787;DHT22;11055;50.870;4.316;2022-12-07T05:40:22;4.50;99.90
21787;DHT22;11055;50.870;4.316;2022-12-07T05:42:48;4.50;99.90
21787;DHT22;11055;50.870;4.316;2022-12-07T05:45:13;4.50;99.90
21787;DHT22;11055;50.870;4.316;2022-12-07T05:47:39;4.40;99.90
21787;DHT22;11055;50.870;4.316;2022-12-07T05:50:05;4.40;99.90
21787;DHT22;11055;50.870;4.316;2022-12-07T05:52:32;4.40;99.90
21787;DHT22;11055;50.870;4.316;2022-12-07T05:54:57;4.40;99.90
21787;DHT22;11055;50.870;4.316;2022-12-07T05:57:23;4.40;99.90
21787;DHT22;11055;50.870;4.316;2022-12-07T05:59:48;4.50;99.90
21787;DHT22;11055;50.870;4.316;2022-12-07T06:02:15;4.50;99.90
21787;DHT22;11055;50.870;4.316;2022-12-07T06:04:44;4.50;99.90
21787;DHT22;11055;50.870;4.316;2022-12-07T06:07:11;4.50;99.90
21787;DHT22;11055;50.870;4.316;2022-12-07T06:09:38;4.50;99.90
21787;DHT22;11055;50.870;4.316;2022-12-07T06:12:04;4.40;99.90
21787;DHT22;11055;50.870;4.316;2022-12-07T06:14:48;4.30;99.90
21787;DHT22;11055;50.870;4.316;2022-12-07T06:17:14;4.40;99.90
21787;DHT22;11055;50.870;4.316;2022-12-07T06:19:40;4.40;99.90
21787;DHT22;11055;50.870;4.316;2022-12-07T06:22:06;4.40;99.90
21787;DHT22;11055;50.870;4.316;2022-12-07T06:24:33;4.40;99.90
21787;DHT22;11055;50.870;4.316;2022-12-07T06:26:59;4.40;99.90
21787;DHT22;11055;50.870;4.316;2022-12-07T06:29:25;4.40;99.90
21787;DHT22;11055;50.870;4.316;2022-12-07T06:31:50;4.50;99.90
21787;DHT22;11055;50.870;4.316;2022-12-07T06:34:19;4.50;99.90
21787;DHT22;11055;50.870;4.316;2022-12-07T06:36:46;4.60;99.90
21787;DHT22;11055;50.870;4.316;2022-12-07T06:39:16;4.80;99.90
21787;DHT22;11055;50.870;4.316;2022-12-07T06:41:41;5.00;99.90
21787;DHT22;11055;50.870;4.316;2022-12-07T06:44:07;5.30;99.90
21787;DHT22;11055;50.870;4.316;2022-12-07T06:46:33;5.20;99.90
21787;DHT22;11055;50.870;4.316;2022-12-07T06:49:01;5.20;99.90
21787;DHT22;11055;50.870;4.316;2022-12-07T06:51:27;5.20;99.90
21787;DHT22;11055;50.870;4.316;2022-12-07T06:53:52;5.10;99.90
21787;DHT22;11055;50.870;4.316;2022-12-07T06:56:18;5.10;99.90
21787;DHT22;11055;50.870;4.316;2022-12-07T06:58:44;4.90;99.90
21787;DHT22;11055;50.870;4.316;2022-12-07T07:01:15;4.90;99.90
21787;DHT22;11055;50.870;4.316;2022-12-07T07:03:40;5.10;99.90
21787;DHT22;11055;50.870;4.316;2022-12-07T07:06:07;5.40;99.90
21787;DHT22;11055;50.870;4.316;2022-12-07T07:08:34;5.60;99.90
21787;DHT22;11055;50.870;4.316;2022-12-07T07:11:00;5.90;99.90
21787;DHT22;11055;50.870;4.316;2022-12-07T07:13:27;6.10;99.90
21787;DHT22;11055;50.870;4.316;2022-12-07T07:15:53;6.20;99.90
21787;DHT22;11055;50.870;4.316;2022-12-07T07:18:19;5.80;99.90
21787;DHT22;11055;50.870;4.316;2022-12-07T07:20:45;5.30;99.90
21787;DHT22;11055;50.870;4.316;2022-12-07T07:23:10;5.00;99.90
21787;DHT22;11055;50.870;4.316;2022-12-07T07:25:36;4.80;99.90
21787;DHT22;11055;50.870;4.316;2022-12-07T07:28:02;4.70;99.90
21787;DHT22;11055;50.870;4.316;2022-12-07T07:30:28;4.70;99.90
21787;DHT22;11055;50.870;4.316;2022-12-07T07:33:01;4.70;99.90
21787;DHT22;11055;50.870;4.316;2022-12-07T07:35:29;4.70;99.90
21787;DHT22;11055;50.870;4.316;2022-12-07T07:37:55;4.70;99.90
21787;DHT22;11055;50.870;4.316;2022-12-07T07:40:21;4.80;99.90
21787;DHT22;11055;50.870;4.316;2022-12-07T07:42:56;5.10;99.90
21787;DHT22;11055;50.870;4.316;2022-12-07T07:45:24;5.00;99.90
21787;DHT22;11055;50.870;4.316;2022-12-07T07:47:50;4.90;99.90
21787;DHT22;11055;50.870;4.316;2022-12-07T07:50:17;4.80;99.90
21787;DHT22;11055;50.870;4.316;2022-12-07T07:52:43;4.70;99.90
21787;DHT22;11055;50.870;4.316;2022-12-07T07:55:09;4.60;99.90
21787;DHT22;11055;50.870;4.316;2022-12-07T07:57:37;4.60;99.90
21787;DHT22;11055;50.870;4.316;2022-12-07T08:00:13;4.60;99.90
21787;DHT22;11055;50.870;4.316;2022-12-07T08:02:40;4.70;99.90
21787;DHT22;11055;50.870;4.316;2022-12-07T08:05:08;4.70;99.90
21787;DHT22;11055;50.870;4.316;2022-12-07T08:07:34;4.70;99.90
21787;DHT22;11055;50.870;4.316;2022-12-07T08:09:59;4.60;99.90
21787;DHT22;11055;50.870;4.316;2022-12-07T08:12:25;4.60;99.90
21787;DHT22;11055;50.870;4.316;2022-12-07T08:14:51;4.60;99.90
21787;DHT22;11055;50.870;4.316;2022-12-07T08:17:16;4.60;99.90
21787;DHT22;11055;50.870;4.316;2022-12-07T08:19:42;4.70;99.90
21787;DHT22;11055;50.870;4.316;2022-12-07T08:22:08;4.70;99.90
21787;DHT22;11055;50.870;4.316;2022-12-07T08:24:35;4.70;99.90
21787;DHT22;11055;50.870;4.316;2022-12-07T08:27:00;4.80;99.90
21787;DHT22;11055;50.870;4.316;2022-12-07T08:29:26;4.80;99.90
21787;DHT22;11055;50.870;4.316;2022-12-07T08:31:52;4.80;99.90
21787;DHT22;11055;50.870;4.316;2022-12-07T08:34:18;4.80;99.90
21787;DHT22;11055;50.870;4.316;2022-12-07T08:36:43;4.70;99.90
21787;DHT22;11055;50.870;4.316;2022-12-07T08:39:09;4.60;99.90
21787;DHT22;11055;50.870;4.316;2022-12-07T08:41:34;4.60;99.90
21787;DHT22;11055;50.870;4.316;2022-12-07T08:44:00;4.60;99.90
21787;DHT22;11055;50.870;4.316;2022-12-07T08:46:46;4.70;99.90
21787;DHT22;11055;50.870;4.316;2022-12-07T08:49:18;4.70;99.90
21787;DHT22;11055;50.870;4.316;2022-12-07T08:51:45;4.70;99.90
21787;DHT22;11055;50.870;4.316;2022-12-07T08:54:14;4.80;99.90
21787;DHT22;11055;50.870;4.316;2022-12-07T08:56:40;4.80;99.90
21787;DHT22;11055;50.870;4.316;2022-12-07T08:59:07;4.90;99.90
21787;DHT22;11055;50.870;4.316;2022-12-07T09:01:33;5.00;99.90
21787;DHT22;11055;50.870;4.316;2022-12-07T09:03:58;5.00;99.90
21787;DHT22;11055;50.870;4.316;2022-12-07T09:06:24;5.10;99.90
21787;DHT22;11055;50.870;4.316;2022-12-07T09:08:52;5.20;99.90
21787;DHT22;11055;50.870;4.316;2022-12-07T09:11:19;5.20;99.90
21787;DHT22;11055;50.870;4.316;2022-12-07T09:13:45;5.20;99.90
21787;DHT22;11055;50.870;4.316;2022-12-07T09:16:10;5.30;99.90
21787;DHT22;11055;50.870;4.316;2022-12-07T09:18:36;5.40;99.90
21787;DHT22;11055;50.870;4.316;2022-12-07T09:21:03;5.40;99.90
21787;DHT22;11055;50.870;4.316;2022-12-07T09:23:29;5.50;99.90
21787;DHT22;11055;50.870;4.316;2022-12-07T09:25:58;5.50;99.90
21787;DHT22;11055;50.870;4.316;2022-12-07T09:28:24;5.50;99.90
21787;DHT22;11055;50.870;4.316;2022-12-07T09:30:49;5.60;99.90
21787;DHT22;11055;50.870;4.316;2022-12-07T09:33:15;5.80;99.90
21787;DHT22;11055;50.870;4.316;2022-12-07T09:35:48;5.90;99.90
21787;DHT22;11055;50.870;4.316;2022-12-07T09:38:15;6.00;99.90
21787;DHT22;11055;50.870;4.316;2022-12-07T09:40:41;6.10;99.90
21787;DHT22;11055;50.870;4.316;2022-12-07T09:43:18;6.20;99.90
21787;DHT22;11055;50.870;4.316;2022-12-07T09:45:44;6.30;99.90
21787;DHT22;11055;50.870;4.316;2022-12-07T09:48:35;6.20;99.90
21787;DHT22;11055;50.870;4.316;2022-12-07T09:51:03;6.10;99.90
21787;DHT22;11055;50.870;4.316;2022-12-07T09:53:37;6.10;99.90
21787;DHT22;11055;50.870;4.316;2022-12-07T09:56:03;6.10;99.90
21787;DHT22;11055;50.870;4.316;2022-12-07T09:58:31;6.10;99.90
21787;DHT22;11055;50.870;4.316;2022-12-07T10:01:19;6.20;99.90
21787;DHT22;11055;50.870;4.316;2022-12-07T10:03:53;6.30;99.90
21787;DHT22;11055;50.870;4.316;2022-12-07T10:06:20;6.20;99.90
21787;DHT22;11055;50.870;4.316;2022-12-07T10:08:47;6.10;99.90
21787;DHT22;11055;50.870;4.316;2022-12-07T10:11:13;6.00;99.90
21787;DHT22;11055;50.870;4.316;2022-12-07T10:13:48;5.90;99.90
21787;DHT22;11055;50.870;4.316;2022-12-07T10:18:50;5.90;99.90
21787;DHT22;11055;50.870;4.316;2022-12-07T10:21:26;6.00;99.90
21787;DHT22;11055;50.870;4.316;2022-12-07T10:24:05;6.20;99.90
21787;DHT22;11055;50.870;4.316;2022-12-07T10:26:34;6.40;99.90
21787;DHT22;11055;50.870;4.316;2022-12-07T10:29:21;6.30;99.90
21787;DHT22;11055;50.870;4.316;2022-12-07T10:32:02;6.40;99.90
21787;DHT22;11055;50.870;4.316;2022-12-07T10:34:36;6.30;99.90
21787;DHT22;11055;50.870;4.316;2022-12-07T10:37:16;6.40;99.90
21787;DHT22;11055;50.870;4.316;2022-12-07T10:39:45;6.30;99.90
21787;DHT22;11055;50.870;4.316;2022-12-07T10:42:25;6.30;99.90
21787;DHT22;11055;50.870;4.316;2022-12-07T11:02:21;6.50;99.90
21787;DHT22;11055;50.870;4.316;2022-12-07T11:05:13;6.60;99.90
21787;DHT22;11055;50.870;4.316;2022-12-07T11:07:55;6.60;99.90
21787;DHT22;11055;50.870;4.316;2022-12-07T11:13:04;6.60;99.90
21787;DHT22;11055;50.870;4.316;2022-12-07T11:18:27;6.70;99.90
21787;DHT22;11055;50.870;4.316;2022-12-07T11:21:21;7.00;99.90
21787;DHT22;11055;50.870;4.316;2022-12-07T11:31:36;6.70;99.90
21787;DHT22;11055;50.870;4.316;2022-12-07T11:34:19;6.60;99.90
21787;DHT22;11055;50.870;4.316;2022-12-07T11:36:52;6.50;99.90
21787;DHT22;11055;50.870;4.316;2022-12-07T11:41:51;6.60;99.90
21787;DHT22;11055;50.870;4.316;2022-12-07T11:44:38;6.60;99.90
21787;DHT22;11055;50.870;4.316;2022-12-07T11:47:15;6.70;99.90
21787;DHT22;11055;50.870;4.316;2022-12-07T11:54:53;6.70;99.90
21787;DHT22;11055;50.870;4.316;2022-12-07T11:57:41;6.80;99.90
21787;DHT22;11055;50.870;4.316;2022-12-07T12:00:16;6.90;99.90
21787;DHT22;11055;50.870;4.316;2022-12-07T12:03:03;7.10;99.90
21787;DHT22;11055;50.870;4.316;2022-12-07T12:05:31;7.00;99.90
21787;DHT22;11055;50.870;4.316;2022-12-07T12:08:13;7.00;99.90
21787;DHT22;11055;50.870;4.316;2022-12-07T12:22:15;7.00;99.90
21787;DHT22;11055;50.870;4.316;2022-12-07T12:24:43;6.80;99.90
21787;DHT22;11055;50.870;4.316;2022-12-07T12:27:18;6.80;99.90
21787;DHT22;11055;50.870;4.316;2022-12-07T12:29:53;6.80;99.90
21787;DHT22;11055;50.870;4.316;2022-12-07T12:32:41;6.80;99.90
21787;DHT22;11055;50.870;4.316;2022-12-07T12:37:55;6.80;99.90
21787;DHT22;11055;50.870;4.316;2022-12-07T12:42:54;6.80;99.90
21787;DHT22;11055;50.870;4.316;2022-12-07T12:50:36;6.80;99.90
21787;DHT22;11055;50.870;4.316;2022-12-07T12:53:23;6.90;99.90
21787;DHT22;11055;50.870;4.316;2022-12-07T12:58:33;7.00;99.90
21787;DHT22;11055;50.870;4.316;2022-12-07T13:03:56;7.50;99.90
21787;DHT22;11055;50.870;4.316;2022-12-07T13:08:52;7.20;99.90
21787;DHT22;11055;50.870;4.316;2022-12-07T13:13:50;7.30;99.90
21787;DHT22;11055;50.870;4.316;2022-12-07T13:18:41;7.70;99.90
21787;DHT22;11055;50.870;4.316;2022-12-07T13:26:39;7.50;99.90
21787;DHT22;11055;50.870;4.316;2022-12-07T13:29:13;7.40;99.90
21787;DHT22;11055;50.870;4.316;2022-12-07T13:34:29;7.40;99.90
21787;DHT22;11055;50.870;4.316;2022-12-07T13:36:55;7.20;99.90
21787;DHT22;11055;50.870;4.316;2022-12-07T13:39:23;7.20;99.90
21787;DHT22;11055;50.870;4.316;2022-12-07T13:41:55;7.30;99.90
21787;DHT22;11055;50.870;4.316;2022-12-07T13:44:27;7.30;99.90
21787;DHT22;11055;50.870;4.316;2022-12-07T13:49:38;7.40;99.90
21787;DHT22;11055;50.870;4.316;2022-12-07T13:52:18;7.50;99.90
21787;DHT22;11055;50.870;4.316;2022-12-07T13:55:13;7.40;99.90
21787;DHT22;11055;50.870;4.316;2022-12-07T13:57:35;7.40;99.90
21787;DHT22;11055;50.870;4.316;2022-12-07T14:00:04;7.20;99.90
21787;DHT22;11055;50.870;4.316;2022-12-07T14:02:32;7.20;99.90
21787;DHT22;11055;50.870;4.316;2022-12-07T14:05:27;7.20;99.90
21787;DHT22;11055;50.870;4.316;2022-12-07T14:07:58;7.20;99.90
21787;DHT22;11055;50.870;4.316;2022-12-07T14:10:28;7.10;99.90
21787;DHT22;11055;50.870;4.316;2022-12-07T14:12:55;7.00;99.90
21787;DHT22;11055;50.870;4.316;2022-12-07T14:15:33;7.00;99.90
21787;DHT22;11055;50.870;4.316;2022-12-07T14:18:00;7.10;99.90
21787;DHT22;11055;50.870;4.316;2022-12-07T14:23:00;7.20;99.90
21787;DHT22;11055;50.870;4.316;2022-12-07T14:25:49;7.10;99.90
21787;DHT22;11055;50.870;4.316;2022-12-07T14:28:32;6.70;99.90
21787;DHT22;11055;50.870;4.316;2022-12-07T14:30:59;6.60;99.90
21787;DHT22;11055;50.870;4.316;2022-12-07T14:33:25;6.50;99.90
21787;DHT22;11055;50.870;4.316;2022-12-07T14:35:52;6.40;99.90
21787;DHT22;11055;50.870;4.316;2022-12-07T14:38:24;6.30;99.90
21787;DHT22;11055;50.870;4.316;2022-12-07T14:40:51;6.40;99.90
21787;DHT22;11055;50.870;4.316;2022-12-07T14:43:18;6.30;99.90
21787;DHT22;11055;50.870;4.316;2022-12-07T14:45:44;6.30;99.90
21787;DHT22;11055;50.870;4.316;2022-12-07T14:48:14;6.30;99.90
21787;DHT22;11055;50.870;4.316;2022-12-07T14:50:45;6.50;99.90
21787;DHT22;11055;50.870;4.316;2022-12-07T14:53:27;6.60;99.90
21787;DHT22;11055;50.870;4.316;2022-12-07T14:55:55;6.80;99.90
21787;DHT22;11055;50.870;4.316;2022-12-07T14:58:20;7.00;99.90
21787;DHT22;11055;50.870;4.316;2022-12-07T15:00:46;7.10;99.90
21787;DHT22;11055;50.870;4.316;2022-12-07T15:03:13;7.20;99.90
21787;DHT22;11055;50.870;4.316;2022-12-07T15:05:39;7.10;99.90
21787;DHT22;11055;50.870;4.316;2022-12-07T15:08:05;7.00;99.90
21787;DHT22;11055;50.870;4.316;2022-12-07T15:10:33;7.00;99.90
21787;DHT22;11055;50.870;4.316;2022-12-07T15:13:01;7.10;99.90
21787;DHT22;11055;50.870;4.316;2022-12-07T15:15:49;7.00;99.90
21787;DHT22;11055;50.870;4.316;2022-12-07T15:18:16;6.90;99.90
21787;DHT22;11055;50.870;4.316;2022-12-07T15:20:42;6.90;99.90
21787;DHT22;11055;50.870;4.316;2022-12-07T15:23:07;6.90;99.90
21787;DHT22;11055;50.870;4.316;2022-12-07T15:25:33;6.80;99.90
21787;DHT22;11055;50.870;4.316;2022-12-07T15:27:59;6.70;99.90
21787;DHT22;11055;50.870;4.316;2022-12-07T15:30:25;6.70;99.90
21787;DHT22;11055;50.870;4.316;2022-12-07T15:32:51;6.70;99.90
21787;DHT22;11055;50.870;4.316;2022-12-07T15:35:17;6.60;99.90
21787;DHT22;11055;50.870;4.316;2022-12-07T15:37:43;6.50;99.90
21787;DHT22;11055;50.870;4.316;2022-12-07T15:40:09;6.30;99.90
21787;DHT22;11055;50.870;4.316;2022-12-07T15:42:35;6.10;99.90
21787;DHT22;11055;50.870;4.316;2022-12-07T15:45:01;6.10;99.90
21787;DHT22;11055;50.870;4.316;2022-12-07T15:47:36;6.10;99.90
21787;DHT22;11055;50.870;4.316;2022-12-07T15:50:03;6.10;99.90
21787;DHT22;11055;50.870;4.316;2022-12-07T15:52:29;6.10;99.90
21787;DHT22;11055;50.870;4.316;2022-12-07T15:54:55;6.10;99.90
21787;DHT22;11055;50.870;4.316;2022-12-07T15:57:21;6.10;99.90
21787;DHT22;11055;50.870;4.316;2022-12-07T15:59:46;6.10;99.90
21787;DHT22;11055;50.870;4.316;2022-12-07T16:02:12;6.00;99.90
21787;DHT22;11055;50.870;4.316;2022-12-07T16:04:38;6.00;99.90
21787;DHT22;11055;50.870;4.316;2022-12-07T16:07:04;6.00;99.90
21787;DHT22;11055;50.870;4.316;2022-12-07T16:09:29;6.00;99.90
21787;DHT22;11055;50.870;4.316;2022-12-07T16:11:55;6.00;99.90
21787;DHT22;11055;50.870;4.316;2022-12-07T16:14:21;6.00;99.90
21787;DHT22;11055;50.870;4.316;2022-12-07T16:16:47;6.00;99.90
21787;DHT22;11055;50.870;4.316;2022-12-07T16:19:13;6.10;99.90
21787;DHT22;11055;50.870;4.316;2022-12-07T16:21:39;6.10;99.90
21787;DHT22;11055;50.870;4.316;2022-12-07T16:24:05;6.20;99.90
21787;DHT22;11055;50.870;4.316;2022-12-07T16:26:31;6.10;99.90
21787;DHT22;11055;50.870;4.316;2022-12-07T16:28:57;6.10;99.90
21787;DHT22;11055;50.870;4.316;2022-12-07T16:31:27;6.10;99.90
21787;DHT22;11055;50.870;4.316;2022-12-07T16:33:55;6.20;99.90
21787;DHT22;11055;50.870;4.316;2022-12-07T16:36:21;6.10;99.90
21787;DHT22;11055;50.870;4.316;2022-12-07T16:38:49;6.10;99.90
21787;DHT22;11055;50.870;4.316;2022-12-07T16:41:15;6.00;99.90
21787;DHT22;11055;50.870;4.316;2022-12-07T16:43:41;6.00;99.90
21787;DHT22;11055;50.870;4.316;2022-12-07T16:46:07;6.00;99.90
21787;DHT22;11055;50.870;4.316;2022-12-07T16:48:39;6.00;99.90
21787;DHT22;11055;50.870;4.316;2022-12-07T16:51:07;6.10;99.90
21787;DHT22;11055;50.870;4.316;2022-12-07T16:53:34;6.10;99.90
21787;DHT22;11055;50.870;4.316;2022-12-07T16:56:01;6.10;99.90
21787;DHT22;11055;50.870;4.316;2022-12-07T16:58:27;6.20;99.90
21787;DHT22;11055;50.870;4.316;2022-12-07T17:00:53;6.20;99.90
21787;DHT22;11055;50.870;4.316;2022-12-07T17:03:19;6.10;99.90
21787;DHT22;11055;50.870;4.316;2022-12-07T17:05:45;6.10;99.90
21787;DHT22;11055;50.870;4.316;2022-12-07T17:08:12;6.10;99.90
21787;DHT22;11055;50.870;4.316;2022-12-07T17:10:41;6.00;99.90
21787;DHT22;11055;50.870;4.316;2022-12-07T17:13:07;6.00;99.90
21787;DHT22;11055;50.870;4.316;2022-12-07T17:16:18;6.10;99.90
21787;DHT22;11055;50.870;4.316;2022-12-07T17:18:43;6.10;99.90
21787;DHT22;11055;50.870;4.316;2022-12-07T17:21:09;6.10;99.90
21787;DHT22;11055;50.870;4.316;2022-12-07T17:23:35;6.10;99.90
21787;DHT22;11055;50.870;4.316;2022-12-07T17:26:23;6.00;99.90
21787;DHT22;11055;50.870;4.316;2022-12-07T17:28:49;5.90;99.90
21787;DHT22;11055;50.870;4.316;2022-12-07T17:31:17;5.90;99.90
21787;DHT22;11055;50.870;4.316;2022-12-07T17:33:43;5.90;99.90
21787;DHT22;11055;50.870;4.316;2022-12-07T17:36:15;5.90;99.90
21787;DHT22;11055;50.870;4.316;2022-12-07T17:38:41;6.00;99.90
21787;DHT22;11055;50.870;4.316;2022-12-07T17:41:18;6.00;99.90
21787;DHT22;11055;50.870;4.316;2022-12-07T17:44:05;5.90;99.90